Time;durP1;ratioP1;P1;durP2;ratioP2;P2;SDS_P1;SDS_P2;PMS_P1;PMS_P2;Temp;Humidity;BMP_temperature;BMP_pressure;BME280_temperature;BME280_humidity;BME280_pressure;Samples;Min_cycle;Max_cycle;Signal;HPM_P1;HPM_P2
2021/09/25 00:01:12;;;;;;;2.63;2.20;;;18.90;95.90;;;;;;6302245;22;20037;-76
2021/09/25 00:03:38;;;;;;;3.85;2.22;;;18.90;95.70;;;;;;6302814;22;20009;-76
2021/09/25 00:06:03;;;;;;;3.30;2.30;;;18.90;95.80;;;;;;6302411;22;20004;-77
2021/09/25 00:08:29;;;;;;;3.08;2.40;;;18.90;95.60;;;;;;6302211;22;20024;-76
2021/09/25 00:10:54;;;;;;;3.58;2.10;;;18.80;95.80;;;;;;6274130;22;20083;-77
2021/09/25 00:13:20;;;;;;;3.15;2.30;;;18.80;95.80;;;;;;6302102;22;20004;-77
2021/09/25 00:15:45;;;;;;;2.38;1.80;;;18.80;95.70;;;;;;6302436;22;20472;-76
2021/09/25 00:18:11;;;;;;;3.72;1.60;;;18.90;95.60;;;;;;6301744;22;20003;-77
2021/09/25 00:20:38;;;;;;;2.50;1.92;;;18.80;95.60;;;;;;6301655;22;20013;-77
2021/09/25 00:23:04;;;;;;;3.15;1.90;;;18.80;95.70;;;;;;6302119;22;20376;-78
2021/09/25 00:25:30;;;;;;;3.00;1.60;;;18.80;95.60;;;;;;6302003;22;20317;-80
2021/09/25 00:27:56;;;;;;;2.80;1.50;;;18.80;95.60;;;;;;6301344;22;20472;-77
2021/09/25 00:30:22;;;;;;;4.53;1.55;;;18.80;95.70;;;;;;6302201;22;20037;-76
2021/09/25 00:32:49;;;;;;;1.60;1.40;;;18.80;95.60;;;;;;6302067;22;20015;-78
2021/09/25 00:35:15;;;;;;;5.43;1.45;;;18.80;95.40;;;;;;6302528;22;20080;-78
2021/09/25 00:37:41;;;;;;;2.22;1.70;;;18.80;95.30;;;;;;6301242;22;20430;-78
2021/09/25 00:40:09;;;;;;;1.80;1.42;;;18.80;95.40;;;;;;6302157;22;20022;-77
2021/09/25 00:42:35;;;;;;;4.78;1.83;;;18.90;95.30;;;;;;6302264;22;20041;-76
2021/09/25 00:45:00;;;;;;;2.30;1.60;;;18.80;95.30;;;;;;6300923;22;20003;-76
2021/09/25 00:47:26;;;;;;;1.77;1.52;;;18.80;95.40;;;;;;6275050;22;20014;-76
2021/09/25 00:49:51;;;;;;;4.40;1.90;;;18.80;95.40;;;;;;6300925;22;20307;-77
2021/09/25 00:52:17;;;;;;;3.75;1.90;;;18.80;95.30;;;;;;6301565;22;20003;-77
2021/09/25 00:54:43;;;;;;;2.72;1.60;;;18.80;95.30;;;;;;6300357;22;20719;-77
2021/09/25 00:57:08;;;;;;;2.30;1.88;;;18.70;95.40;;;;;;6301828;22;20007;-76
2021/09/25 00:59:34;;;;;;;2.80;1.60;;;18.80;95.30;;;;;;6301814;22;20003;-76
2021/09/25 01:02:00;;;;;;;2.92;1.83;;;18.80;95.20;;;;;;6303882;22;20321;-77
2021/09/25 01:04:26;;;;;;;2.40;1.63;;;18.80;95.10;;;;;;6303955;22;20070;-75
2021/09/25 01:06:52;;;;;;;4.65;1.80;;;18.80;95.20;;;;;;6303889;22;20003;-78
2021/09/25 01:09:17;;;;;;;1.63;1.38;;;18.80;95.20;;;;;;6303434;22;20089;-77
2021/09/25 01:11:43;;;;;;;2.33;1.70;;;18.80;95.20;;;;;;6304744;22;20010;-78
2021/09/25 01:14:10;;;;;;;4.38;2.00;;;18.80;95.20;;;;;;6304671;22;20338;-78
2021/09/25 01:16:36;;;;;;;3.08;1.60;;;18.80;95.30;;;;;;6303518;22;20079;-78
2021/09/25 01:19:01;;;;;;;1.83;1.25;;;18.70;95.10;;;;;;6303086;22;20030;-78
2021/09/25 01:21:27;;;;;;;2.33;1.35;;;18.80;95.20;;;;;;6302784;22;20422;-78
2021/09/25 01:23:54;;;;;;;2.55;1.40;;;18.80;95.20;;;;;;6276446;22;20087;-78
2021/09/25 01:26:20;;;;;;;1.63;1.42;;;18.80;95.20;;;;;;6303878;22;20699;-78
2021/09/25 01:28:47;;;;;;;3.30;1.38;;;18.70;95.20;;;;;;6302836;22;20398;-77
2021/09/25 01:31:15;;;;;;;2.67;1.63;;;18.70;95.20;;;;;;6303621;22;20007;-77
2021/09/25 01:33:44;;;;;;;3.42;1.55;;;18.70;95.40;;;;;;6303863;22;20338;-78
2021/09/25 01:36:12;;;;;;;2.75;1.58;;;18.70;95.40;;;;;;6303702;22;20440;-78
2021/09/25 01:38:40;;;;;;;3.17;1.88;;;18.70;95.30;;;;;;6303791;22;20003;-77
2021/09/25 01:41:05;;;;;;;2.72;1.20;;;18.70;95.30;;;;;;6302736;22;20033;-77
2021/09/25 01:43:31;;;;;;;1.60;1.45;;;18.70;95.30;;;;;;6303936;22;20003;-78
2021/09/25 01:45:57;;;;;;;1.60;1.15;;;18.70;95.20;;;;;;6303915;22;20099;-78
2021/09/25 01:48:23;;;;;;;2.70;1.65;;;18.60;95.30;;;;;;6304169;22;20003;-78
2021/09/25 01:50:50;;;;;;;4.00;1.63;;;18.60;95.20;;;;;;6302748;22;20003;-78
2021/09/25 01:53:16;;;;;;;2.10;1.73;;;18.60;95.30;;;;;;6303404;22;20080;-78
2021/09/25 01:55:42;;;;;;;1.85;1.33;;;18.60;95.20;;;;;;6303825;22;20006;-78
2021/09/25 01:58:08;;;;;;;5.22;1.80;;;18.60;95.20;;;;;;6303215;22;20003;-78
2021/09/25 02:00:34;;;;;;;1.40;1.30;;;18.50;95.20;;;;;;6302718;22;20010;-78
2021/09/25 02:03:01;;;;;;;1.80;1.35;;;18.50;95.30;;;;;;6302979;22;20057;-78
2021/09/25 02:05:27;;;;;;;1.35;1.20;;;18.50;95.50;;;;;;6303029;22;20006;-78
2021/09/25 02:07:52;;;;;;;2.78;1.70;;;18.50;95.30;;;;;;6302525;22;20384;-79
2021/09/25 02:10:18;;;;;;;2.88;1.40;;;18.50;95.30;;;;;;6303369;22;20092;-78
2021/09/25 02:12:45;;;;;;;3.25;1.50;;;18.50;95.30;;;;;;6302775;22;20010;-75
2021/09/25 02:15:11;;;;;;;1.85;1.45;;;18.50;95.20;;;;;;6303419;22;20010;-76
2021/09/25 02:17:37;;;;;;;2.03;1.40;;;18.50;95.30;;;;;;6302926;22;20027;-76
2021/09/25 02:20:06;;;;;;;2.00;1.27;;;18.40;95.30;;;;;;6302120;22;20301;-77
2021/09/25 02:22:31;;;;;;;2.08;1.40;;;18.40;95.40;;;;;;6303353;22;20057;-77
2021/09/25 02:24:57;;;;;;;4.40;1.60;;;18.40;95.40;;;;;;6303556;22;20003;-77
2021/09/25 02:27:22;;;;;;;1.70;1.40;;;18.30;95.40;;;;;;6303383;22;20015;-77
2021/09/25 02:29:48;;;;;;;1.88;1.10;;;18.40;95.40;;;;;;6302433;22;20014;-77
2021/09/25 02:32:13;;;;;;;1.50;1.27;;;18.30;95.70;;;;;;6302729;22;20037;-77
2021/09/25 02:34:39;;;;;;;4.03;1.70;;;18.30;95.50;;;;;;6303980;22;20007;-77
2021/09/25 02:37:05;;;;;;;3.28;1.67;;;18.30;95.50;;;;;;6303073;22;20042;-77
2021/09/25 02:39:32;;;;;;;3.97;1.77;;;18.20;95.60;;;;;;6302949;22;20011;-78
2021/09/25 02:41:59;;;;;;;3.50;1.42;;;18.30;95.70;;;;;;6302859;22;20396;-77
2021/09/25 02:44:25;;;;;;;1.80;1.63;;;18.20;95.70;;;;;;6303517;22;19999;-77
2021/09/25 02:46:50;;;;;;;2.25;1.45;;;18.20;95.70;;;;;;6303584;22;20035;-76
2021/09/25 02:49:18;;;;;;;4.45;1.50;;;18.10;95.70;;;;;;6302597;22;20026;-75
2021/09/25 02:51:44;;;;;;;1.60;1.50;;;18.10;95.70;;;;;;6301807;22;20695;-78
2021/09/25 02:54:09;;;;;;;2.70;1.50;;;18.10;95.80;;;;;;6303661;22;20011;-77
2021/09/25 02:56:35;;;;;;;1.95;1.52;;;18.10;95.70;;;;;;6300591;22;20433;-77
2021/09/25 02:59:01;;;;;;;4.65;1.60;;;18.00;95.80;;;;;;6302482;22;20045;-77
2021/09/25 03:01:27;;;;;;;2.15;1.65;;;18.00;95.80;;;;;;6302718;22;20011;-76
2021/09/25 03:03:54;;;;;;;2.25;1.52;;;18.10;95.90;;;;;;6302502;22;20064;-77
2021/09/25 03:06:22;;;;;;;3.38;1.73;;;18.00;95.90;;;;;;6302668;22;20326;-77
2021/09/25 03:08:47;;;;;;;2.50;1.80;;;18.00;95.90;;;;;;6302191;22;20392;-77
2021/09/25 03:11:13;;;;;;;1.67;1.52;;;18.00;95.90;;;;;;6302212;22;20003;-76
2021/09/25 03:13:38;;;;;;;2.63;1.60;;;18.00;96.00;;;;;;6303261;22;20000;-77
2021/09/25 03:16:04;;;;;;;2.38;2.17;;;17.90;96.00;;;;;;6302591;22;20030;-77
2021/09/25 03:18:29;;;;;;;2.95;2.08;;;17.80;96.00;;;;;;6302383;22;20049;-75
2021/09/25 03:20:55;;;;;;;1.98;1.70;;;17.70;96.10;;;;;;6302219;22;20333;-77
2021/09/25 03:23:20;;;;;;;2.33;2.03;;;17.70;96.10;;;;;;6302407;22;20089;-78
2021/09/25 03:25:46;;;;;;;2.22;1.80;;;17.70;96.20;;;;;;6302287;22;20033;-77
2021/09/25 03:28:11;;;;;;;1.92;1.73;;;17.60;96.20;;;;;;6301691;22;20010;-76
2021/09/25 03:30:37;;;;;;;1.85;1.55;;;17.60;96.40;;;;;;6302460;22;20037;-77
2021/09/25 03:33:03;;;;;;;2.10;1.70;;;17.50;96.40;;;;;;6301627;22;20060;-78
2021/09/25 03:35:29;;;;;;;2.67;1.35;;;17.50;96.40;;;;;;6302990;22;20074;-77
2021/09/25 03:37:55;;;;;;;3.38;2.15;;;17.40;96.50;;;;;;6301603;22;19999;-78
2021/09/25 03:40:20;;;;;;;2.65;1.75;;;17.40;96.60;;;;;;6302449;22;20026;-77
2021/09/25 03:42:47;;;;;;;2.22;1.77;;;17.40;96.70;;;;;;6302421;22;20007;-77
2021/09/25 03:45:13;;;;;;;1.65;1.38;;;17.30;96.70;;;;;;6302945;22;20006;-77
2021/09/25 03:47:38;;;;;;;2.08;1.77;;;17.30;96.70;;;;;;6301594;22;19999;-77
2021/09/25 03:50:05;;;;;;;2.05;1.50;;;17.30;96.80;;;;;;6302816;22;20079;-77
2021/09/25 03:52:30;;;;;;;1.88;1.60;;;17.30;96.80;;;;;;6301273;22;20064;-77
2021/09/25 03:54:56;;;;;;;2.67;1.88;;;17.30;96.80;;;;;;6302004;22;20418;-77
2021/09/25 03:57:21;;;;;;;1.95;1.60;;;17.20;96.80;;;;;;6302686;22;20010;-77
2021/09/25 03:59:47;;;;;;;2.60;1.83;;;17.20;96.90;;;;;;6301519;22;20084;-77
2021/09/25 04:02:13;;;;;;;2.17;1.98;;;17.20;96.80;;;;;;6301669;22;20094;-77
2021/09/25 04:04:38;;;;;;;3.85;2.15;;;17.10;96.90;;;;;;6303010;22;20015;-77
2021/09/25 04:07:04;;;;;;;2.05;1.60;;;17.10;97.00;;;;;;6302266;22;19991;-77
2021/09/25 04:09:29;;;;;;;2.22;1.88;;;17.10;97.10;;;;;;6302298;22;20561;-77
2021/09/25 04:11:54;;;;;;;2.85;1.70;;;17.00;97.20;;;;;;6301297;22;20010;-78
2021/09/25 04:14:21;;;;;;;6.20;2.20;;;17.00;97.30;;;;;;6301927;22;20049;-77
2021/09/25 04:16:47;;;;;;;2.83;2.20;;;16.90;97.30;;;;;;6275641;22;20551;-77
2021/09/25 04:19:12;;;;;;;2.00;1.58;;;16.90;97.50;;;;;;6301571;22;20335;-78
2021/09/25 04:21:38;;;;;;;2.05;1.75;;;16.90;97.60;;;;;;6302098;22;19995;-77
2021/09/25 04:24:04;;;;;;;2.53;1.75;;;16.80;97.60;;;;;;6302563;22;20398;-77
2021/09/25 04:26:29;;;;;;;2.25;1.83;;;16.80;97.70;;;;;;6301697;22;20004;-77
2021/09/25 04:28:57;;;;;;;2.78;1.88;;;16.80;97.70;;;;;;6301679;22;20001;-78
2021/09/25 04:31:23;;;;;;;2.50;1.85;;;16.90;97.60;;;;;;6302300;22;20060;-77
2021/09/25 04:33:48;;;;;;;4.05;2.13;;;16.90;97.60;;;;;;6301714;22;20080;-77
2021/09/25 04:36:14;;;;;;;2.40;1.55;;;16.80;97.50;;;;;;6304358;22;20503;-78
2021/09/25 04:38:39;;;;;;;3.33;2.22;;;16.90;97.50;;;;;;6302912;22;20003;-77
2021/09/25 04:41:05;;;;;;;4.05;2.63;;;16.90;97.40;;;;;;6303532;22;20031;-77
2021/09/25 04:43:30;;;;;;;3.70;2.90;;;16.90;97.40;;;;;;6304278;22;20009;-77
2021/09/25 04:45:56;;;;;;;4.97;2.88;;;16.80;97.50;;;;;;6303875;22;20406;-77
2021/09/25 04:48:21;;;;;;;3.20;2.35;;;16.80;97.60;;;;;;6303103;22;19999;-77
2021/09/25 04:50:46;;;;;;;3.90;2.28;;;16.90;97.40;;;;;;6276024;22;20007;-77
2021/09/25 04:53:14;;;;;;;3.80;2.30;;;16.90;97.30;;;;;;6303196;22;20573;-77
2021/09/25 04:55:43;;;;;;;3.60;2.03;;;16.90;97.30;;;;;;6304401;22;20375;-77
2021/09/25 04:58:09;;;;;;;4.50;2.28;;;16.90;97.30;;;;;;6302814;22;20705;-77
2021/09/25 05:00:35;;;;;;;4.50;2.70;;;16.90;97.30;;;;;;6303765;22;20011;-78
2021/09/25 05:03:01;;;;;;;3.95;2.78;;;16.90;97.30;;;;;;6303329;22;20002;-77
2021/09/25 05:05:26;;;;;;;2.45;1.73;;;16.90;97.40;;;;;;6303034;22;20003;-77
2021/09/25 05:07:52;;;;;;;2.53;2.28;;;16.90;97.30;;;;;;6302819;22;20449;-77
2021/09/25 05:10:18;;;;;;;4.05;2.47;;;16.90;97.40;;;;;;6303482;22;20022;-77
2021/09/25 05:12:44;;;;;;;2.10;1.90;;;16.90;97.50;;;;;;6302659;22;19999;-77
2021/09/25 05:15:10;;;;;;;3.40;2.08;;;16.90;97.40;;;;;;6303724;22;20010;-76
2021/09/25 05:17:36;;;;;;;3.72;2.10;;;16.90;97.40;;;;;;6274886;22;20457;-76
2021/09/25 05:20:04;;;;;;;4.05;2.20;;;17.00;97.40;;;;;;6301913;22;20008;-77
2021/09/25 05:22:30;;;;;;;5.00;2.33;;;16.90;97.40;;;;;;6303036;22;20074;-77
2021/09/25 05:24:55;;;;;;;4.88;2.40;;;17.00;97.40;;;;;;6302891;22;20095;-77
2021/09/25 05:27:21;;;;;;;4.03;2.30;;;17.00;97.40;;;;;;6303657;22;20011;-77
2021/09/25 05:29:46;;;;;;;4.03;2.55;;;17.10;97.30;;;;;;6303049;22;20011;-78
2021/09/25 05:32:12;;;;;;;6.57;2.25;;;17.10;97.30;;;;;;6302009;22;20003;-78
2021/09/25 05:34:37;;;;;;;2.35;1.98;;;17.10;97.20;;;;;;6304116;22;20009;-77
2021/09/25 05:37:04;;;;;;;5.72;2.15;;;17.10;97.20;;;;;;6303418;22;19999;-77
2021/09/25 05:39:30;;;;;;;3.70;2.30;;;17.10;97.20;;;;;;6302209;22;20064;-76
2021/09/25 05:41:56;;;;;;;3.85;1.95;;;17.10;97.10;;;;;;6290584;22;20008;-77
2021/09/25 05:44:22;;;;;;;2.58;2.10;;;17.10;97.10;;;;;;6295252;22;20467;-77
2021/09/25 05:46:47;;;;;;;2.92;2.17;;;17.10;97.00;;;;;;6301132;22;20639;-76
2021/09/25 05:49:13;;;;;;;3.20;2.35;;;17.10;96.90;;;;;;6301557;22;20437;-76
2021/09/25 05:51:38;;;;;;;2.80;2.05;;;17.10;97.10;;;;;;6301693;22;19999;-77
2021/09/25 05:54:04;;;;;;;4.03;2.20;;;17.10;96.90;;;;;;6302654;22;20000;-76
2021/09/25 05:56:29;;;;;;;3.58;2.13;;;17.10;97.00;;;;;;6302530;22;20000;-76
2021/09/25 05:58:55;;;;;;;3.28;2.63;;;17.10;97.00;;;;;;6302483;22;19999;-76
2021/09/25 06:01:20;;;;;;;2.75;2.40;;;17.10;97.00;;;;;;6303201;22;20480;-77
2021/09/25 06:03:45;;;;;;;3.13;2.33;;;17.10;97.00;;;;;;6303276;22;19999;-77
2021/09/25 06:06:11;;;;;;;3.95;2.10;;;17.10;97.20;;;;;;6303454;22;19999;-76
2021/09/25 06:08:36;;;;;;;6.35;2.25;;;17.10;97.10;;;;;;6302632;22;20114;-76
2021/09/25 06:11:02;;;;;;;3.42;2.22;;;17.20;97.10;;;;;;6302626;22;20088;-77
2021/09/25 06:13:27;;;;;;;4.03;2.47;;;17.20;97.10;;;;;;6303145;22;20528;-77
2021/09/25 06:15:53;;;;;;;7.32;2.40;;;17.30;97.10;;;;;;6303338;22;20007;-77
2021/09/25 06:18:18;;;;;;;2.78;1.80;;;17.30;96.90;;;;;;6302175;22;20005;-76
2021/09/25 06:20:44;;;;;;;3.53;2.38;;;17.40;97.00;;;;;;6302557;22;20021;-77
2021/09/25 06:23:09;;;;;;;3.30;2.45;;;17.40;96.80;;;;;;6303429;22;20326;-76
2021/09/25 06:25:35;;;;;;;3.45;2.10;;;17.40;96.70;;;;;;6303298;22;20597;-77
2021/09/25 06:28:01;;;;;;;3.60;2.40;;;17.40;96.60;;;;;;6303055;22;20014;-77
2021/09/25 06:30:27;;;;;;;2.92;2.60;;;17.50;96.40;;;;;;6303827;22;20007;-76
2021/09/25 06:32:52;;;;;;;3.35;2.20;;;17.40;96.70;;;;;;6275291;22;20006;-77
2021/09/25 06:35:19;;;;;;;3.40;1.95;;;17.50;96.80;;;;;;6303547;22;20007;-77
2021/09/25 06:37:44;;;;;;;2.33;2.13;;;17.60;96.50;;;;;;6302347;22;20014;-77
2021/09/25 06:40:11;;;;;;;2.47;2.00;;;17.60;96.50;;;;;;6275312;22;20007;-77
2021/09/25 06:42:38;;;;;;;3.55;1.90;;;17.60;96.40;;;;;;6303320;22;20014;-77
2021/09/25 06:45:04;;;;;;;5.00;2.40;;;17.60;96.30;;;;;;6302851;22;20007;-77
2021/09/25 06:47:30;;;;;;;2.22;1.90;;;17.60;96.40;;;;;;6303060;22;20428;-77
2021/09/25 06:49:55;;;;;;;2.15;1.38;;;17.70;96.30;;;;;;6274745;22;20065;-77
2021/09/25 06:52:23;;;;;;;5.22;1.85;;;17.70;96.20;;;;;;6303312;22;20083;-76
2021/09/25 06:54:49;;;;;;;3.97;2.10;;;17.80;96.40;;;;;;6302882;22;20006;-77
2021/09/25 06:57:15;;;;;;;2.90;1.95;;;17.80;96.20;;;;;;6302522;22;19999;-76
2021/09/25 06:59:40;;;;;;;3.03;2.08;;;17.90;96.20;;;;;;6301951;22;20078;-76
2021/09/25 07:02:06;;;;;;;2.45;1.77;;;17.90;96.10;;;;;;6302521;22;20013;-76
2021/09/25 07:04:31;;;;;;;5.35;2.00;;;18.00;96.20;;;;;;6275683;22;19995;-77
2021/09/25 07:06:57;;;;;;;6.15;2.60;;;18.00;96.20;;;;;;6275904;22;20007;-76
2021/09/25 07:09:22;;;;;;;2.45;1.95;;;18.10;96.00;;;;;;6301693;22;20007;-76
2021/09/25 07:11:48;;;;;;;3.00;1.75;;;18.10;95.90;;;;;;6302871;22;20010;-77
2021/09/25 07:14:13;;;;;;;2.03;1.75;;;18.20;96.00;;;;;;6302905;22;20444;-78
2021/09/25 07:16:39;;;;;;;4.70;1.95;;;18.20;96.20;;;;;;6303363;22;19999;-76
2021/09/25 07:19:04;;;;;;;2.63;2.05;;;18.30;95.80;;;;;;6301338;22;20493;-77
2021/09/25 07:21:31;;;;;;;3.47;2.05;;;18.40;95.70;;;;;;6302711;22;20010;-76
2021/09/25 07:23:56;;;;;;;2.88;1.92;;;18.40;95.70;;;;;;6302916;22;20068;-76
2021/09/25 07:26:23;;;;;;;4.80;2.20;;;18.50;95.90;;;;;;6302797;22;20011;-77
2021/09/25 07:28:48;;;;;;;3.00;1.67;;;18.50;95.50;;;;;;6301593;22;20386;-76
2021/09/25 07:31:14;;;;;;;2.58;1.92;;;18.60;95.50;;;;;;6300452;22;20057;-76
2021/09/25 07:33:40;;;;;;;7.78;2.72;;;18.80;95.40;;;;;;6300527;22;19996;-77
2021/09/25 07:36:06;;;;;;;5.35;2.38;;;18.90;95.10;;;;;;6300666;22;20069;-78
2021/09/25 07:38:31;;;;;;;2.58;2.05;;;19.00;95.20;;;;;;6299912;22;20003;-78
2021/09/25 07:40:58;;;;;;;3.40;2.08;;;19.10;94.90;;;;;;6299697;22;20400;-78
2021/09/25 07:43:24;;;;;;;4.70;2.60;;;19.20;94.70;;;;;;6301966;22;20052;-78
2021/09/25 07:45:50;;;;;;;2.53;1.88;;;19.20;94.50;;;;;;6301082;22;20003;-77
2021/09/25 07:48:16;;;;;;;6.13;1.98;;;19.20;94.70;;;;;;6301209;22;20414;-77
2021/09/25 07:50:41;;;;;;;6.50;2.25;;;19.30;94.30;;;;;;6301024;22;20592;-78
2021/09/25 07:53:07;;;;;;;5.07;2.78;;;19.20;94.40;;;;;;6300922;22;20083;-77
2021/09/25 07:55:34;;;;;;;6.35;2.13;;;19.30;94.40;;;;;;6302205;22;20481;-77
2021/09/25 07:58:00;;;;;;;5.68;2.95;;;19.40;94.00;;;;;;6300981;22;20009;-77
2021/09/25 08:00:26;;;;;;;4.10;2.25;;;19.40;94.10;;;;;;6301995;22;20011;-77
2021/09/25 08:02:52;;;;;;;2.92;2.35;;;19.50;94.50;;;;;;6301418;22;20035;-78
2021/09/25 08:05:18;;;;;;;4.45;2.10;;;19.50;94.30;;;;;;6301751;22;19999;-77
2021/09/25 08:07:43;;;;;;;2.42;2.00;;;19.60;94.00;;;;;;6300828;22;20005;-78
2021/09/25 08:10:11;;;;;;;4.72;2.28;;;19.70;94.20;;;;;;6301918;22;20053;-78
2021/09/25 08:12:37;;;;;;;3.55;2.28;;;19.80;94.00;;;;;;6300968;22;20094;-78
2021/09/25 08:15:04;;;;;;;3.90;2.60;;;19.80;93.50;;;;;;6302301;22;20091;-78
2021/09/25 08:17:29;;;;;;;4.00;2.22;;;19.80;93.70;;;;;;6301842;22;20004;-77
2021/09/25 08:19:55;;;;;;;3.35;2.47;;;19.80;93.90;;;;;;6301263;22;20013;-77
2021/09/25 08:22:21;;;;;;;6.47;2.53;;;19.80;93.60;;;;;;6301769;22;20003;-77
2021/09/25 08:24:47;;;;;;;4.35;2.58;;;19.80;93.50;;;;;;6301527;22;20003;-77
2021/09/25 08:27:12;;;;;;;3.47;2.40;;;19.80;93.60;;;;;;6302089;22;20332;-77
2021/09/25 08:29:38;;;;;;;2.30;2.08;;;19.80;94.10;;;;;;6301201;22;20004;-77
2021/09/25 08:32:04;;;;;;;3.05;2.45;;;19.90;94.20;;;;;;6301430;22;20448;-77
2021/09/25 08:34:30;;;;;;;2.30;1.80;;;19.90;93.50;;;;;;6301204;22;20064;-77
2021/09/25 08:36:56;;;;;;;2.90;2.20;;;20.00;94.00;;;;;;6302289;22;20405;-77
2021/09/25 08:39:22;;;;;;;4.45;2.97;;;20.10;93.90;;;;;;6299381;22;20000;-79
2021/09/25 08:41:50;;;;;;;3.08;2.40;;;20.20;93.30;;;;;;6301841;22;20085;-79
2021/09/25 08:44:15;;;;;;;2.25;2.05;;;20.20;93.40;;;;;;6301260;22;19996;-79
2021/09/25 08:46:41;;;;;;;2.20;1.98;;;20.40;93.30;;;;;;6297605;22;20007;-79
2021/09/25 08:49:07;;;;;;;4.03;2.53;;;20.40;92.80;;;;;;6300427;22;20007;-79
2021/09/25 08:51:34;;;;;;;3.28;2.03;;;20.50;93.20;;;;;;6300887;22;20372;-79
2021/09/25 08:53:59;;;;;;;3.25;2.40;;;20.50;92.80;;;;;;6302196;22;20000;-78
2021/09/25 08:56:27;;;;;;;3.05;2.70;;;20.50;92.50;;;;;;6301265;22;20471;-77
2021/09/25 08:58:53;;;;;;;2.83;2.53;;;20.40;93.00;;;;;;6300842;22;20010;-78
2021/09/25 09:01:21;;;;;;;5.13;2.75;;;20.40;93.00;;;;;;6299763;22;20038;-77
2021/09/25 09:03:48;;;;;;;3.05;2.35;;;20.50;93.00;;;;;;6302069;22;20078;-77
2021/09/25 09:06:19;;;;;;;3.65;2.80;;;20.50;92.60;;;;;;6300159;22;20496;-77
2021/09/25 09:08:47;;;;;;;3.80;2.63;;;20.50;92.50;;;;;;6300019;22;20019;-78
2021/09/25 09:11:15;;;;;;;4.18;2.42;;;20.40;92.80;;;;;;6301023;22;20060;-78
2021/09/25 09:13:43;;;;;;;3.83;2.60;;;20.40;92.90;;;;;;6301336;22;19999;-79
2021/09/25 09:16:10;;;;;;;3.22;2.72;;;20.40;93.00;;;;;;6302391;22;20026;-78
2021/09/25 09:18:41;;;;;;;3.30;2.30;;;20.50;92.60;;;;;;6300662;22;20068;-78
2021/09/25 09:21:11;;;;;;;2.40;2.05;;;20.40;92.80;;;;;;6302400;22;20056;-78
2021/09/25 09:23:57;;;;;;;4.38;2.42;;;20.50;93.00;;;;;;6303828;22;19996;-78
2021/09/25 09:26:28;;;;;;;4.53;3.45;;;20.50;92.40;;;;;;6303061;22;20011;-78
2021/09/25 09:28:56;;;;;;;4.13;2.40;;;20.60;92.50;;;;;;6302515;22;20066;-78
2021/09/25 09:31:23;;;;;;;2.22;2.03;;;20.80;92.30;;;;;;6303245;22;20086;-78
2021/09/25 09:33:56;;;;;;;5.05;2.35;;;21.00;92.10;;;;;;6303115;22;20581;-78
2021/09/25 09:36:42;;;;;;;3.03;2.08;;;21.10;92.00;;;;;;6302652;22;20780;-78
2021/09/25 09:39:09;;;;;;;3.63;1.90;;;21.20;91.60;;;;;;6301227;22;20078;-77
2021/09/25 09:41:36;;;;;;;2.67;1.98;;;21.30;91.50;;;;;;6300856;22;20018;-77
2021/09/25 09:44:05;;;;;;;3.95;2.40;;;21.40;91.50;;;;;;6301555;22;20034;-78
2021/09/25 09:46:35;;;;;;;3.03;2.20;;;21.50;91.70;;;;;;6302455;22;20696;-78
2021/09/25 09:49:02;;;;;;;4.75;1.92;;;21.60;91.00;;;;;;6299689;22;20003;-78
2021/09/25 09:51:38;;;;;;;2.28;1.80;;;21.60;91.20;;;;;;6300366;22;20003;-79
2021/09/25 09:54:19;;;;;;;4.60;2.00;;;21.60;91.00;;;;;;6301860;22;20056;-78
2021/09/25 09:56:46;;;;;;;2.40;2.13;;;21.60;90.40;;;;;;6303040;22;20380;-78
2021/09/25 09:59:12;;;;;;;3.80;2.20;;;21.60;90.60;;;;;;6298382;22;20018;-79
2021/09/25 10:01:39;;;;;;;2.60;1.75;;;21.60;91.00;;;;;;6300449;22;20050;-78
2021/09/25 10:04:06;;;;;;;3.47;2.50;;;21.70;90.60;;;;;;6272607;22;20065;-78
2021/09/25 10:06:35;;;;;;;3.15;1.80;;;21.80;90.40;;;;;;6300695;22;20006;-78
2021/09/25 10:09:02;;;;;;;10.45;2.67;;;21.80;90.30;;;;;;6300895;22;19999;-79
2021/09/25 10:11:30;;;;;;;3.30;2.38;;;21.90;90.30;;;;;;6298664;22;20504;-78
2021/09/25 10:13:57;;;;;;;3.92;2.03;;;21.90;90.30;;;;;;6300770;22;20026;-79
2021/09/25 10:16:22;;;;;;;2.42;1.85;;;22.00;90.30;;;;;;6299315;22;20044;-79
2021/09/25 10:18:50;;;;;;;2.95;1.88;;;22.10;90.20;;;;;;6299285;22;20000;-79
2021/09/25 10:21:15;;;;;;;2.45;2.00;;;22.10;90.00;;;;;;6298084;22;20007;-79
2021/09/25 10:24:04;;;;;;;1.98;1.77;;;22.20;90.20;;;;;;6299700;22;20055;-78
2021/09/25 10:26:30;;;;;;;2.00;1.75;;;22.30;90.70;;;;;;6222789;22;20007;-78
2021/09/25 10:29:02;;;;;;;6.53;2.00;;;22.40;90.70;;;;;;6299785;22;20002;-78
2021/09/25 10:31:28;;;;;;;1.90;1.55;;;22.60;90.00;;;;;;6302393;22;20015;-78
2021/09/25 10:34:06;;;;;;;2.72;2.00;;;22.70;90.80;;;;;;6301683;22;20075;-78
2021/09/25 10:36:53;;;;;;;2.05;1.85;;;22.90;89.00;;;;;;6300098;22;20145;-78
2021/09/25 10:39:29;;;;;;;6.50;2.90;;;23.00;89.80;;;;;;6300708;22;20000;-78
2021/09/25 10:42:12;;;;;;;4.80;2.20;;;23.10;88.30;;;;;;6297992;22;20002;-79
2021/09/25 10:44:47;;;;;;;3.03;2.30;;;23.20;87.80;;;;;;6301127;22;20082;-79
2021/09/25 10:47:21;;;;;;;6.03;2.63;;;23.20;88.30;;;;;;6299567;22;20006;-79
2021/09/25 10:49:58;;;;;;;2.80;2.08;;;23.20;88.30;;;;;;6300464;22;20345;-79
2021/09/25 10:52:50;;;;;;;2.85;2.20;;;23.20;88.40;;;;;;6300285;22;20044;-79
2021/09/25 10:55:21;;;;;;;6.47;2.67;;;23.20;88.80;;;;;;6300299;22;20023;-79
2021/09/25 10:58:17;;;;;;;2.88;2.20;;;23.20;88.80;;;;;;6301466;22;20007;-79
2021/09/25 11:00:47;;;;;;;3.85;2.70;;;23.30;88.50;;;;;;6301751;22;20590;-77
2021/09/25 11:03:44;;;;;;;4.13;1.85;;;23.20;87.70;;;;;;6302546;22;20003;-78
2021/09/25 11:06:10;;;;;;;3.20;1.80;;;23.30;90.20;;;;;;6301216;22;20023;-78
2021/09/25 11:08:38;;;;;;;3.03;1.75;;;23.40;88.20;;;;;;6300760;22;20027;-78
2021/09/25 11:11:14;;;;;;;1.40;1.20;;;23.40;88.60;;;;;;6301442;22;20007;-78
2021/09/25 11:14:04;;;;;;;1.95;1.38;;;23.50;88.70;;;;;;6301295;22;20007;-78
2021/09/25 11:16:51;;;;;;;2.38;1.90;;;23.60;88.20;;;;;;6300235;22;20018;-78
2021/09/25 11:19:22;;;;;;;1.90;1.70;;;23.70;86.10;;;;;;6299393;22;20689;-78
2021/09/25 11:21:56;;;;;;;5.87;0.97;;;23.70;86.10;;;;;;6300708;22;20000;-78
2021/09/25 11:24:22;;;;;;;1.55;1.15;;;23.70;86.50;;;;;;6299820;22;20002;-78
2021/09/25 11:26:48;;;;;;;1.92;1.00;;;23.80;87.20;;;;;;6270277;22;20007;-78
2021/09/25 11:29:14;;;;;;;2.47;1.30;;;23.80;87.50;;;;;;6271217;22;20433;-77
2021/09/25 11:31:39;;;;;;;1.83;1.40;;;23.90;86.00;;;;;;6274517;22;20045;-77
2021/09/25 11:34:28;;;;;;;1.73;1.42;;;23.90;86.10;;;;;;6300956;22;20030;-77
2021/09/25 11:36:58;;;;;;;3.30;1.50;;;23.90;84.80;;;;;;6270512;22;19999;-78
2021/09/25 11:39:41;;;;;;;2.65;1.70;;;23.90;86.10;;;;;;6297225;22;20074;-77
2021/09/25 11:42:14;;;;;;;1.42;1.17;;;23.90;85.10;;;;;;6295671;22;20022;-77
2021/09/25 11:44:54;;;;;;;1.90;1.60;;;23.90;85.90;;;;;;6297478;22;20000;-78
2021/09/25 11:47:22;;;;;;;1.33;1.23;;;23.90;84.60;;;;;;6269274;22;20003;-77
2021/09/25 11:49:48;;;;;;;2.70;1.23;;;23.90;84.80;;;;;;6298099;22;20060;-78
2021/09/25 11:52:14;;;;;;;5.95;1.40;;;23.90;84.10;;;;;;6300559;22;20011;-77
2021/09/25 11:54:40;;;;;;;1.42;1.20;;;23.90;85.30;;;;;;6300610;22;20070;-77
2021/09/25 11:57:16;;;;;;;3.42;1.38;;;23.90;84.50;;;;;;6301605;22;19999;-77
2021/09/25 11:59:43;;;;;;;2.83;1.58;;;23.90;85.30;;;;;;6272617;22;20334;-79
2021/09/25 12:02:08;;;;;;;1.70;1.35;;;23.90;84.20;;;;;;6301078;22;19996;-78
2021/09/25 12:04:41;;;;;;;1.23;1.10;;;23.90;85.90;;;;;;6301943;22;20088;-78
2021/09/25 12:07:08;;;;;;;1.63;1.25;;;23.90;85.90;;;;;;6301265;22;20376;-78
2021/09/25 12:09:41;;;;;;;1.25;0.95;;;24.00;85.20;;;;;;6299804;22;20003;-78
2021/09/25 12:12:08;;;;;;;1.48;1.20;;;24.10;85.40;;;;;;6300227;22;20013;-77
2021/09/25 12:14:41;;;;;;;1.30;1.05;;;24.20;84.30;;;;;;6299297;22;20082;-77
2021/09/25 12:17:07;;;;;;;2.80;1.23;;;24.30;85.30;;;;;;6300479;22;20078;-77
2021/09/25 12:19:32;;;;;;;2.10;1.10;;;24.30;84.50;;;;;;6301040;22;20003;-77
2021/09/25 12:21:58;;;;;;;2.70;1.10;;;24.30;84.60;;;;;;6301761;22;20003;-78
2021/09/25 12:24:23;;;;;;;2.75;1.40;;;24.30;84.50;;;;;;6302310;22;20013;-77
2021/09/25 12:26:52;;;;;;;1.75;1.40;;;24.30;83.60;;;;;;6302064;22;20018;-77
2021/09/25 12:29:19;;;;;;;1.92;1.60;;;24.40;83.50;;;;;;6300713;22;20007;-77
2021/09/25 12:31:45;;;;;;;1.58;1.45;;;24.30;84.50;;;;;;6301878;22;19995;-79
2021/09/25 12:34:13;;;;;;;2.90;1.15;;;24.20;83.70;;;;;;6302045;22;19999;-77
2021/09/25 12:36:42;;;;;;;3.75;1.13;;;24.20;84.50;;;;;;6275550;22;20002;-77
2021/09/25 12:39:16;;;;;;;3.35;1.30;;;24.30;83.00;;;;;;6300418;22;20484;-77
2021/09/25 12:42:03;;;;;;;4.85;1.15;;;24.40;85.30;;;;;;6301892;22;20031;-77
2021/09/25 12:44:34;;;;;;;1.23;1.13;;;24.50;83.80;;;;;;6298913;22;20003;-77
2021/09/25 12:47:00;;;;;;;1.47;1.03;;;24.80;82.50;;;;;;6301933;22;20018;-79
2021/09/25 12:49:36;;;;;;;1.95;1.20;;;24.90;82.30;;;;;;6273031;22;20006;-77